sensor_id;sensor_type;location;lat;lon;timestamp;P1;durP1;ratioP1;P2;durP2;ratioP2
38208;SDS011;24016;52.102;11.584;2024-01-27T00:02:25;14.38;;;2.58;;
38208;SDS011;24016;52.102;11.584;2024-01-27T00:04:51;12.07;;;2.22;;
38208;SDS011;24016;52.102;11.584;2024-01-27T00:07:16;12.00;;;2.33;;
38208;SDS011;24016;52.102;11.584;2024-01-27T00:09:42;8.43;;;2.20;;
38208;SDS011;24016;52.102;11.584;2024-01-27T00:12:08;10.30;;;2.50;;
38208;SDS011;24016;52.102;11.584;2024-01-27T00:14:33;12.95;;;2.40;;
38208;SDS011;24016;52.102;11.584;2024-01-27T00:17:02;12.57;;;2.60;;
38208;SDS011;24016;52.102;11.584;2024-01-27T00:19:28;16.92;;;2.80;;
38208;SDS011;24016;52.102;11.584;2024-01-27T00:21:53;16.52;;;3.47;;
38208;SDS011;24016;52.102;11.584;2024-01-27T00:24:19;8.57;;;2.90;;
38208;SDS011;24016;52.102;11.584;2024-01-27T00:26:44;12.73;;;2.15;;
38208;SDS011;24016;52.102;11.584;2024-01-27T00:29:10;14.55;;;2.72;;
38208;SDS011;24016;52.102;11.584;2024-01-27T00:31:36;11.07;;;2.25;;
38208;SDS011;24016;52.102;11.584;2024-01-27T00:34:01;14.70;;;2.55;;
38208;SDS011;24016;52.102;11.584;2024-01-27T00:36:27;13.50;;;2.00;;
38208;SDS011;24016;52.102;11.584;2024-01-27T00:38:52;15.65;;;2.30;;
38208;SDS011;24016;52.102;11.584;2024-01-27T00:41:18;12.82;;;2.83;;
38208;SDS011;24016;52.102;11.584;2024-01-27T00:43:44;12.40;;;2.67;;
38208;SDS011;24016;52.102;11.584;2024-01-27T00:46:10;19.13;;;2.45;;
38208;SDS011;24016;52.102;11.584;2024-01-27T00:48:36;13.07;;;2.10;;
38208;SDS011;24016;52.102;11.584;2024-01-27T00:51:01;12.35;;;2.75;;
38208;SDS011;24016;52.102;11.584;2024-01-27T00:53:27;12.05;;;2.53;;
38208;SDS011;24016;52.102;11.584;2024-01-27T00:55:52;11.60;;;2.35;;
38208;SDS011;24016;52.102;11.584;2024-01-27T00:58:17;15.65;;;2.78;;
38208;SDS011;24016;52.102;11.584;2024-01-27T01:00:43;11.02;;;2.22;;
38208;SDS011;24016;52.102;11.584;2024-01-27T01:03:09;16.83;;;2.97;;
38208;SDS011;24016;52.102;11.584;2024-01-27T01:05:34;12.93;;;3.13;;
38208;SDS011;24016;52.102;11.584;2024-01-27T01:08:00;15.40;;;2.55;;
38208;SDS011;24016;52.102;11.584;2024-01-27T01:10:25;13.80;;;2.72;;
38208;SDS011;24016;52.102;11.584;2024-01-27T01:12:51;14.80;;;2.22;;
38208;SDS011;24016;52.102;11.584;2024-01-27T01:15:17;13.52;;;2.40;;
38208;SDS011;24016;52.102;11.584;2024-01-27T01:17:42;14.43;;;2.30;;
38208;SDS011;24016;52.102;11.584;2024-01-27T01:20:08;11.02;;;2.00;;
38208;SDS011;24016;52.102;11.584;2024-01-27T01:22:34;13.88;;;2.38;;
38208;SDS011;24016;52.102;11.584;2024-01-27T01:24:59;12.57;;;2.60;;
38208;SDS011;24016;52.102;11.584;2024-01-27T01:27:24;17.70;;;2.78;;
38208;SDS011;24016;52.102;11.584;2024-01-27T01:29:50;14.00;;;2.65;;
38208;SDS011;24016;52.102;11.584;2024-01-27T01:32:16;15.18;;;2.50;;
38208;SDS011;24016;52.102;11.584;2024-01-27T01:34:41;10.70;;;2.38;;
38208;SDS011;24016;52.102;11.584;2024-01-27T01:37:07;15.98;;;2.63;;
38208;SDS011;24016;52.102;11.584;2024-01-27T01:39:32;11.85;;;2.22;;
38208;SDS011;24016;52.102;11.584;2024-01-27T01:41:58;15.23;;;2.88;;
38208;SDS011;24016;52.102;11.584;2024-01-27T01:44:25;16.33;;;2.75;;
38208;SDS011;24016;52.102;11.584;2024-01-27T01:49:20;10.48;;;2.10;;
38208;SDS011;24016;52.102;11.584;2024-01-27T01:51:46;10.82;;;2.05;;
38208;SDS011;24016;52.102;11.584;2024-01-27T01:54:11;10.00;;;2.25;;
38208;SDS011;24016;52.102;11.584;2024-01-27T01:56:37;7.95;;;2.25;;
38208;SDS011;24016;52.102;11.584;2024-01-27T01:59:03;11.85;;;2.72;;
38208;SDS011;24016;52.102;11.584;2024-01-27T02:01:28;12.10;;;2.78;;
38208;SDS011;24016;52.102;11.584;2024-01-27T02:03:54;12.52;;;2.60;;
38208;SDS011;24016;52.102;11.584;2024-01-27T02:06:20;8.30;;;2.60;;
38208;SDS011;24016;52.102;11.584;2024-01-27T02:08:45;10.90;;;1.90;;
38208;SDS011;24016;52.102;11.584;2024-01-27T02:11:11;10.15;;;2.22;;
38208;SDS011;24016;52.102;11.584;2024-01-27T02:13:36;11.23;;;2.55;;
38208;SDS011;24016;52.102;11.584;2024-01-27T02:16:02;13.85;;;2.20;;
38208;SDS011;24016;52.102;11.584;2024-01-27T02:18:28;12.30;;;1.85;;
38208;SDS011;24016;52.102;11.584;2024-01-27T02:20:53;13.52;;;2.85;;
38208;SDS011;24016;52.102;11.584;2024-01-27T02:23:19;12.98;;;2.90;;
38208;SDS011;24016;52.102;11.584;2024-01-27T02:25:44;11.38;;;2.30;;
38208;SDS011;24016;52.102;11.584;2024-01-27T02:28:10;16.90;;;3.65;;
38208;SDS011;24016;52.102;11.584;2024-01-27T02:33:14;17.73;;;2.53;;
38208;SDS011;24016;52.102;11.584;2024-01-27T02:35:41;15.63;;;3.13;;
38208;SDS011;24016;52.102;11.584;2024-01-27T02:38:17;12.50;;;2.50;;
38208;SDS011;24016;52.102;11.584;2024-01-27T02:40:44;14.35;;;2.67;;
38208;SDS011;24016;52.102;11.584;2024-01-27T02:43:34;10.95;;;2.55;;
38208;SDS011;24016;52.102;11.584;2024-01-27T02:46:01;17.90;;;2.90;;
38208;SDS011;24016;52.102;11.584;2024-01-27T02:48:26;13.98;;;2.33;;
38208;SDS011;24016;52.102;11.584;2024-01-27T02:50:54;6.80;;;2.03;;
38208;SDS011;24016;52.102;11.584;2024-01-27T02:53:19;11.55;;;2.90;;
38208;SDS011;24016;52.102;11.584;2024-01-27T02:55:45;20.77;;;3.78;;
38208;SDS011;24016;52.102;11.584;2024-01-27T02:58:10;11.68;;;2.50;;
38208;SDS011;24016;52.102;11.584;2024-01-27T03:00:36;9.60;;;2.85;;
38208;SDS011;24016;52.102;11.584;2024-01-27T03:03:02;13.43;;;2.78;;
38208;SDS011;24016;52.102;11.584;2024-01-27T03:05:27;17.30;;;2.53;;
38208;SDS011;24016;52.102;11.584;2024-01-27T03:07:53;13.60;;;2.50;;
38208;SDS011;24016;52.102;11.584;2024-01-27T03:10:18;14.30;;;2.67;;
38208;SDS011;24016;52.102;11.584;2024-01-27T03:12:44;13.05;;;3.22;;
38208;SDS011;24016;52.102;11.584;2024-01-27T03:15:09;14.80;;;2.75;;
38208;SDS011;24016;52.102;11.584;2024-01-27T03:17:35;16.67;;;3.25;;
38208;SDS011;24016;52.102;11.584;2024-01-27T03:20:00;13.52;;;2.60;;
38208;SDS011;24016;52.102;11.584;2024-01-27T03:22:26;13.13;;;2.63;;
38208;SDS011;24016;52.102;11.584;2024-01-27T03:24:52;13.48;;;3.13;;
38208;SDS011;24016;52.102;11.584;2024-01-27T03:27:20;15.82;;;2.75;;
38208;SDS011;24016;52.102;11.584;2024-01-27T03:29:45;9.00;;;2.72;;
38208;SDS011;24016;52.102;11.584;2024-01-27T03:32:11;15.68;;;2.42;;
38208;SDS011;24016;52.102;11.584;2024-01-27T03:34:37;14.43;;;2.50;;
38208;SDS011;24016;52.102;11.584;2024-01-27T03:37:08;17.83;;;2.97;;
38208;SDS011;24016;52.102;11.584;2024-01-27T03:39:33;19.38;;;2.92;;
38208;SDS011;24016;52.102;11.584;2024-01-27T03:41:59;12.13;;;2.78;;
38208;SDS011;24016;52.102;11.584;2024-01-27T03:44:24;19.92;;;2.70;;
38208;SDS011;24016;52.102;11.584;2024-01-27T03:46:50;15.35;;;2.95;;
38208;SDS011;24016;52.102;11.584;2024-01-27T03:49:16;10.45;;;2.00;;
38208;SDS011;24016;52.102;11.584;2024-01-27T03:51:42;13.98;;;2.80;;
38208;SDS011;24016;52.102;11.584;2024-01-27T03:54:07;24.58;;;2.70;;
38208;SDS011;24016;52.102;11.584;2024-01-27T03:56:33;9.60;;;2.65;;
38208;SDS011;24016;52.102;11.584;2024-01-27T03:58:58;11.07;;;2.05;;
38208;SDS011;24016;52.102;11.584;2024-01-27T04:01:24;16.25;;;2.88;;
38208;SDS011;24016;52.102;11.584;2024-01-27T04:03:49;11.10;;;2.47;;
38208;SDS011;24016;52.102;11.584;2024-01-27T04:06:15;15.73;;;2.40;;
38208;SDS011;24016;52.102;11.584;2024-01-27T04:08:40;13.90;;;3.38;;
38208;SDS011;24016;52.102;11.584;2024-01-27T04:11:08;17.70;;;3.53;;
38208;SDS011;24016;52.102;11.584;2024-01-27T04:13:35;10.00;;;2.30;;
38208;SDS011;24016;52.102;11.584;2024-01-27T04:16:01;15.60;;;2.58;;
38208;SDS011;24016;52.102;11.584;2024-01-27T04:18:26;19.02;;;2.88;;
38208;SDS011;24016;52.102;11.584;2024-01-27T04:20:52;18.27;;;3.45;;
38208;SDS011;24016;52.102;11.584;2024-01-27T04:23:17;13.35;;;3.08;;
38208;SDS011;24016;52.102;11.584;2024-01-27T04:25:43;19.70;;;3.20;;
38208;SDS011;24016;52.102;11.584;2024-01-27T04:28:09;13.95;;;2.97;;
38208;SDS011;24016;52.102;11.584;2024-01-27T04:30:36;8.82;;;2.08;;
38208;SDS011;24016;52.102;11.584;2024-01-27T04:33:02;14.90;;;2.85;;
38208;SDS011;24016;52.102;11.584;2024-01-27T04:35:28;14.25;;;3.22;;
38208;SDS011;24016;52.102;11.584;2024-01-27T04:37:54;17.98;;;3.17;;
38208;SDS011;24016;52.102;11.584;2024-01-27T04:40:19;18.33;;;3.08;;
38208;SDS011;24016;52.102;11.584;2024-01-27T04:42:45;18.42;;;3.25;;
38208;SDS011;24016;52.102;11.584;2024-01-27T04:45:14;16.30;;;3.15;;
38208;SDS011;24016;52.102;11.584;2024-01-27T04:47:40;15.90;;;3.10;;
38208;SDS011;24016;52.102;11.584;2024-01-27T04:50:05;15.23;;;3.38;;
38208;SDS011;24016;52.102;11.584;2024-01-27T04:52:31;15.30;;;3.22;;
38208;SDS011;24016;52.102;11.584;2024-01-27T04:54:57;20.35;;;3.35;;
38208;SDS011;24016;52.102;11.584;2024-01-27T04:57:23;22.33;;;3.38;;
38208;SDS011;24016;52.102;11.584;2024-01-27T04:59:48;15.15;;;2.83;;
38208;SDS011;24016;52.102;11.584;2024-01-27T05:02:14;13.95;;;2.70;;
38208;SDS011;24016;52.102;11.584;2024-01-27T05:04:39;14.65;;;3.33;;
38208;SDS011;24016;52.102;11.584;2024-01-27T05:07:05;20.55;;;4.53;;
38208;SDS011;24016;52.102;11.584;2024-01-27T05:09:31;17.85;;;4.03;;
38208;SDS011;24016;52.102;11.584;2024-01-27T05:11:59;12.48;;;2.78;;
38208;SDS011;24016;52.102;11.584;2024-01-27T05:14:25;18.88;;;3.85;;
38208;SDS011;24016;52.102;11.584;2024-01-27T05:16:50;15.32;;;3.63;;
38208;SDS011;24016;52.102;11.584;2024-01-27T05:19:16;17.88;;;4.18;;
38208;SDS011;24016;52.102;11.584;2024-01-27T05:21:42;18.50;;;4.15;;
38208;SDS011;24016;52.102;11.584;2024-01-27T05:24:08;13.23;;;3.22;;
38208;SDS011;24016;52.102;11.584;2024-01-27T05:26:34;15.25;;;3.30;;
38208;SDS011;24016;52.102;11.584;2024-01-27T05:29:00;20.20;;;3.55;;
38208;SDS011;24016;52.102;11.584;2024-01-27T05:31:26;21.15;;;3.95;;
38208;SDS011;24016;52.102;11.584;2024-01-27T05:33:52;15.07;;;3.50;;
38208;SDS011;24016;52.102;11.584;2024-01-27T05:36:17;17.42;;;3.15;;
38208;SDS011;24016;52.102;11.584;2024-01-27T05:38:43;11.75;;;3.15;;
38208;SDS011;24016;52.102;11.584;2024-01-27T05:41:08;14.75;;;3.33;;
38208;SDS011;24016;52.102;11.584;2024-01-27T05:43:34;18.05;;;3.38;;
38208;SDS011;24016;52.102;11.584;2024-01-27T05:45:59;12.70;;;3.35;;
38208;SDS011;24016;52.102;11.584;2024-01-27T05:48:25;21.15;;;4.20;;
38208;SDS011;24016;52.102;11.584;2024-01-27T05:50:57;13.40;;;3.05;;
38208;SDS011;24016;52.102;11.584;2024-01-27T05:53:23;17.58;;;4.15;;
38208;SDS011;24016;52.102;11.584;2024-01-27T05:55:49;16.70;;;3.15;;
38208;SDS011;24016;52.102;11.584;2024-01-27T05:58:15;18.70;;;4.00;;
38208;SDS011;24016;52.102;11.584;2024-01-27T06:00:42;18.20;;;3.80;;
38208;SDS011;24016;52.102;11.584;2024-01-27T06:03:09;22.08;;;4.07;;
38208;SDS011;24016;52.102;11.584;2024-01-27T06:05:34;17.83;;;3.70;;
38208;SDS011;24016;52.102;11.584;2024-01-27T06:08:00;17.25;;;3.78;;
38208;SDS011;24016;52.102;11.584;2024-01-27T06:10:25;15.05;;;3.78;;
38208;SDS011;24016;52.102;11.584;2024-01-27T06:12:51;15.15;;;3.42;;
38208;SDS011;24016;52.102;11.584;2024-01-27T06:15:17;18.52;;;4.43;;
38208;SDS011;24016;52.102;11.584;2024-01-27T06:17:42;16.70;;;4.50;;
38208;SDS011;24016;52.102;11.584;2024-01-27T06:20:08;15.23;;;3.88;;
38208;SDS011;24016;52.102;11.584;2024-01-27T06:22:33;14.23;;;3.58;;
38208;SDS011;24016;52.102;11.584;2024-01-27T06:24:59;11.60;;;3.40;;
38208;SDS011;24016;52.102;11.584;2024-01-27T06:27:24;15.35;;;3.47;;
38208;SDS011;24016;52.102;11.584;2024-01-27T06:29:50;15.25;;;4.13;;
38208;SDS011;24016;52.102;11.584;2024-01-27T06:32:15;16.95;;;4.18;;
38208;SDS011;24016;52.102;11.584;2024-01-27T06:34:41;15.98;;;3.70;;
38208;SDS011;24016;52.102;11.584;2024-01-27T06:37:06;17.15;;;3.88;;
38208;SDS011;24016;52.102;11.584;2024-01-27T06:39:32;22.58;;;4.68;;
38208;SDS011;24016;52.102;11.584;2024-01-27T06:41:57;19.80;;;3.92;;
38208;SDS011;24016;52.102;11.584;2024-01-27T06:44:23;17.80;;;4.45;;
38208;SDS011;24016;52.102;11.584;2024-01-27T06:46:48;20.13;;;4.65;;
38208;SDS011;24016;52.102;11.584;2024-01-27T06:49:15;20.08;;;4.43;;
38208;SDS011;24016;52.102;11.584;2024-01-27T06:51:41;15.15;;;3.55;;
38208;SDS011;24016;52.102;11.584;2024-01-27T06:54:08;18.33;;;4.35;;
38208;SDS011;24016;52.102;11.584;2024-01-27T06:56:33;15.88;;;3.58;;
38208;SDS011;24016;52.102;11.584;2024-01-27T06:58:59;15.82;;;3.88;;
38208;SDS011;24016;52.102;11.584;2024-01-27T07:01:24;16.75;;;3.47;;
38208;SDS011;24016;52.102;11.584;2024-01-27T07:03:50;20.55;;;3.92;;
38208;SDS011;24016;52.102;11.584;2024-01-27T07:06:16;14.45;;;3.60;;
38208;SDS011;24016;52.102;11.584;2024-01-27T07:08:41;11.60;;;3.20;;
38208;SDS011;24016;52.102;11.584;2024-01-27T07:11:06;19.70;;;3.97;;
38208;SDS011;24016;52.102;11.584;2024-01-27T07:13:33;16.52;;;3.72;;
38208;SDS011;24016;52.102;11.584;2024-01-27T07:15:58;15.23;;;4.07;;
38208;SDS011;24016;52.102;11.584;2024-01-27T07:18:24;13.02;;;3.63;;
38208;SDS011;24016;52.102;11.584;2024-01-27T07:20:50;15.93;;;4.57;;
38208;SDS011;24016;52.102;11.584;2024-01-27T07:23:16;15.85;;;3.88;;
38208;SDS011;24016;52.102;11.584;2024-01-27T07:25:42;16.60;;;3.85;;
38208;SDS011;24016;52.102;11.584;2024-01-27T07:28:08;17.05;;;4.13;;
38208;SDS011;24016;52.102;11.584;2024-01-27T07:30:34;14.90;;;3.83;;
38208;SDS011;24016;52.102;11.584;2024-01-27T07:32:59;13.02;;;3.75;;
38208;SDS011;24016;52.102;11.584;2024-01-27T07:35:25;19.30;;;4.25;;
38208;SDS011;24016;52.102;11.584;2024-01-27T07:37:50;15.32;;;4.03;;
38208;SDS011;24016;52.102;11.584;2024-01-27T07:40:15;16.52;;;3.92;;
38208;SDS011;24016;52.102;11.584;2024-01-27T07:42:41;14.98;;;3.90;;
38208;SDS011;24016;52.102;11.584;2024-01-27T07:45:07;16.25;;;3.78;;
38208;SDS011;24016;52.102;11.584;2024-01-27T07:47:33;18.80;;;4.55;;
38208;SDS011;24016;52.102;11.584;2024-01-27T07:49:59;18.48;;;4.65;;
38208;SDS011;24016;52.102;11.584;2024-01-27T07:52:25;21.25;;;4.53;;
38208;SDS011;24016;52.102;11.584;2024-01-27T07:54:50;15.23;;;3.75;;
38208;SDS011;24016;52.102;11.584;2024-01-27T07:57:16;18.85;;;3.65;;
38208;SDS011;24016;52.102;11.584;2024-01-27T07:59:41;13.45;;;3.55;;
38208;SDS011;24016;52.102;11.584;2024-01-27T08:02:07;15.50;;;3.95;;
38208;SDS011;24016;52.102;11.584;2024-01-27T08:04:32;16.98;;;3.80;;
38208;SDS011;24016;52.102;11.584;2024-01-27T08:06:58;14.13;;;3.53;;
38208;SDS011;24016;52.102;11.584;2024-01-27T08:09:23;9.55;;;3.50;;
38208;SDS011;24016;52.102;11.584;2024-01-27T08:11:50;15.52;;;3.70;;
38208;SDS011;24016;52.102;11.584;2024-01-27T08:14:17;14.27;;;3.88;;
38208;SDS011;24016;52.102;11.584;2024-01-27T08:16:43;18.00;;;4.25;;
38208;SDS011;24016;52.102;11.584;2024-01-27T08:19:09;15.68;;;3.90;;
38208;SDS011;24016;52.102;11.584;2024-01-27T08:21:34;12.65;;;3.42;;
38208;SDS011;24016;52.102;11.584;2024-01-27T08:24:00;16.23;;;3.33;;
38208;SDS011;24016;52.102;11.584;2024-01-27T08:26:25;14.48;;;4.53;;
38208;SDS011;24016;52.102;11.584;2024-01-27T08:28:51;18.25;;;3.78;;
38208;SDS011;24016;52.102;11.584;2024-01-27T08:31:16;12.27;;;3.00;;
38208;SDS011;24016;52.102;11.584;2024-01-27T08:33:42;11.07;;;3.33;;
38208;SDS011;24016;52.102;11.584;2024-01-27T08:36:07;14.40;;;3.10;;
38208;SDS011;24016;52.102;11.584;2024-01-27T08:38:38;13.02;;;2.70;;
38208;SDS011;24016;52.102;11.584;2024-01-27T08:41:03;15.30;;;4.00;;
38208;SDS011;24016;52.102;11.584;2024-01-27T08:43:29;11.07;;;2.88;;
38208;SDS011;24016;52.102;11.584;2024-01-27T08:45:54;19.33;;;4.28;;
38208;SDS011;24016;52.102;11.584;2024-01-27T08:48:21;13.35;;;3.38;;
38208;SDS011;24016;52.102;11.584;2024-01-27T08:50:47;12.55;;;3.03;;
38208;SDS011;24016;52.102;11.584;2024-01-27T08:53:12;17.55;;;3.50;;
38208;SDS011;24016;52.102;11.584;2024-01-27T08:55:38;11.63;;;2.63;;
38208;SDS011;24016;52.102;11.584;2024-01-27T08:58:03;14.82;;;3.30;;
38208;SDS011;24016;52.102;11.584;2024-01-27T09:00:29;11.90;;;3.47;;
38208;SDS011;24016;52.102;11.584;2024-01-27T09:02:55;14.25;;;3.63;;
38208;SDS011;24016;52.102;11.584;2024-01-27T09:05:20;13.85;;;3.70;;
38208;SDS011;24016;52.102;11.584;2024-01-27T09:07:49;12.02;;;2.92;;
38208;SDS011;24016;52.102;11.584;2024-01-27T09:10:15;13.15;;;3.20;;
38208;SDS011;24016;52.102;11.584;2024-01-27T09:12:41;12.73;;;3.15;;
38208;SDS011;24016;52.102;11.584;2024-01-27T09:15:07;10.45;;;2.80;;
38208;SDS011;24016;52.102;11.584;2024-01-27T09:17:32;17.17;;;3.05;;
38208;SDS011;24016;52.102;11.584;2024-01-27T09:19:58;12.52;;;2.70;;
38208;SDS011;24016;52.102;11.584;2024-01-27T09:22:23;10.30;;;2.90;;
38208;SDS011;24016;52.102;11.584;2024-01-27T09:24:50;9.77;;;3.13;;
38208;SDS011;24016;52.102;11.584;2024-01-27T09:27:16;11.02;;;2.67;;
38208;SDS011;24016;52.102;11.584;2024-01-27T09:29:45;14.00;;;3.83;;
38208;SDS011;24016;52.102;11.584;2024-01-27T09:32:10;15.10;;;3.03;;
38208;SDS011;24016;52.102;11.584;2024-01-27T09:34:36;15.00;;;2.90;;
38208;SDS011;24016;52.102;11.584;2024-01-27T09:37:02;16.02;;;3.47;;
38208;SDS011;24016;52.102;11.584;2024-01-27T09:39:27;10.35;;;2.72;;
38208;SDS011;24016;52.102;11.584;2024-01-27T09:41:53;13.77;;;2.67;;
38208;SDS011;24016;52.102;11.584;2024-01-27T09:44:20;15.02;;;3.90;;
38208;SDS011;24016;52.102;11.584;2024-01-27T09:46:46;10.77;;;2.92;;
38208;SDS011;24016;52.102;11.584;2024-01-27T09:49:13;9.27;;;2.67;;
38208;SDS011;24016;52.102;11.584;2024-01-27T09:51:41;11.15;;;2.35;;
38208;SDS011;24016;52.102;11.584;2024-01-27T09:54:06;12.85;;;2.83;;
38208;SDS011;24016;52.102;11.584;2024-01-27T09:56:32;16.30;;;3.72;;
38208;SDS011;24016;52.102;11.584;2024-01-27T09:58:58;12.20;;;2.58;;
38208;SDS011;24016;52.102;11.584;2024-01-27T10:01:24;13.38;;;2.53;;
38208;SDS011;24016;52.102;11.584;2024-01-27T10:03:53;11.77;;;2.80;;
38208;SDS011;24016;52.102;11.584;2024-01-27T10:06:19;12.10;;;2.97;;
38208;SDS011;24016;52.102;11.584;2024-01-27T10:08:51;11.85;;;3.22;;
38208;SDS011;24016;52.102;11.584;2024-01-27T10:11:18;10.40;;;3.22;;
38208;SDS011;24016;52.102;11.584;2024-01-27T10:13:45;11.23;;;2.88;;
38208;SDS011;24016;52.102;11.584;2024-01-27T10:16:19;10.65;;;2.53;;
38208;SDS011;24016;52.102;11.584;2024-01-27T10:18:44;13.95;;;2.85;;
38208;SDS011;24016;52.102;11.584;2024-01-27T10:21:13;10.35;;;3.15;;
38208;SDS011;24016;52.102;11.584;2024-01-27T10:23:39;10.82;;;2.45;;
38208;SDS011;24016;52.102;11.584;2024-01-27T10:26:08;12.18;;;2.97;;
38208;SDS011;24016;52.102;11.584;2024-01-27T10:28:34;11.68;;;3.72;;
38208;SDS011;24016;52.102;11.584;2024-01-27T10:31:09;10.25;;;2.42;;
38208;SDS011;24016;52.102;11.584;2024-01-27T10:33:36;13.80;;;3.05;;
38208;SDS011;24016;52.102;11.584;2024-01-27T10:36:01;12.13;;;3.00;;
38208;SDS011;24016;52.102;11.584;2024-01-27T10:38:34;12.63;;;2.78;;
38208;SDS011;24016;52.102;11.584;2024-01-27T10:41:01;10.05;;;2.53;;
38208;SDS011;24016;52.102;11.584;2024-01-27T10:43:29;10.80;;;2.78;;
38208;SDS011;24016;52.102;11.584;2024-01-27T10:45:56;13.60;;;3.17;;
38208;SDS011;24016;52.102;11.584;2024-01-27T10:48:22;10.48;;;2.42;;
38208;SDS011;24016;52.102;11.584;2024-01-27T10:50:49;11.93;;;2.88;;
38208;SDS011;24016;52.102;11.584;2024-01-27T10:53:22;12.88;;;2.78;;
38208;SDS011;24016;52.102;11.584;2024-01-27T10:55:53;11.85;;;2.78;;
38208;SDS011;24016;52.102;11.584;2024-01-27T10:58:21;10.55;;;3.33;;
38208;SDS011;24016;52.102;11.584;2024-01-27T11:00:48;9.18;;;2.85;;
38208;SDS011;24016;52.102;11.584;2024-01-27T11:03:15;8.02;;;2.38;;
38208;SDS011;24016;52.102;11.584;2024-01-27T11:05:43;9.18;;;2.85;;
38208;SDS011;24016;52.102;11.584;2024-01-27T11:08:12;12.38;;;3.05;;
38208;SDS011;24016;52.102;11.584;2024-01-27T11:10:39;16.75;;;3.35;;
38208;SDS011;24016;52.102;11.584;2024-01-27T11:13:06;13.38;;;3.10;;
38208;SDS011;24016;52.102;11.584;2024-01-27T11:15:33;12.20;;;2.80;;
38208;SDS011;24016;52.102;11.584;2024-01-27T11:17:59;9.32;;;2.38;;
38208;SDS011;24016;52.102;11.584;2024-01-27T11:20:25;13.65;;;3.15;;
38208;SDS011;24016;52.102;11.584;2024-01-27T11:22:51;10.23;;;2.95;;
38208;SDS011;24016;52.102;11.584;2024-01-27T11:25:17;9.32;;;2.75;;
38208;SDS011;24016;52.102;11.584;2024-01-27T11:27:44;10.75;;;2.92;;
38208;SDS011;24016;52.102;11.584;2024-01-27T11:30:30;13.90;;;3.58;;
38208;SDS011;24016;52.102;11.584;2024-01-27T11:33:00;8.25;;;2.55;;
38208;SDS011;24016;52.102;11.584;2024-01-27T11:35:28;11.82;;;2.92;;
38208;SDS011;24016;52.102;11.584;2024-01-27T11:37:54;9.55;;;2.28;;
38208;SDS011;24016;52.102;11.584;2024-01-27T11:40:20;9.63;;;2.85;;
38208;SDS011;24016;52.102;11.584;2024-01-27T11:42:55;8.55;;;2.40;;
38208;SDS011;24016;52.102;11.584;2024-01-27T11:45:22;10.13;;;2.88;;
38208;SDS011;24016;52.102;11.584;2024-01-27T11:47:48;8.48;;;2.35;;
38208;SDS011;24016;52.102;11.584;2024-01-27T11:50:14;10.18;;;2.67;;
38208;SDS011;24016;52.102;11.584;2024-01-27T11:52:42;9.32;;;3.20;;
38208;SDS011;24016;52.102;11.584;2024-01-27T11:55:08;9.43;;;3.13;;
38208;SDS011;24016;52.102;11.584;2024-01-27T11:57:33;7.35;;;2.72;;
38208;SDS011;24016;52.102;11.584;2024-01-27T11:59:59;14.63;;;2.70;;
38208;SDS011;24016;52.102;11.584;2024-01-27T12:02:24;10.63;;;3.00;;
38208;SDS011;24016;52.102;11.584;2024-01-27T12:04:50;7.85;;;2.40;;
38208;SDS011;24016;52.102;11.584;2024-01-27T12:07:16;7.85;;;2.35;;
38208;SDS011;24016;52.102;11.584;2024-01-27T12:09:46;11.38;;;2.28;;
38208;SDS011;24016;52.102;11.584;2024-01-27T12:12:13;10.52;;;2.38;;
38208;SDS011;24016;52.102;11.584;2024-01-27T12:14:40;8.52;;;2.15;;
38208;SDS011;24016;52.102;11.584;2024-01-27T12:17:09;8.75;;;2.65;;
38208;SDS011;24016;52.102;11.584;2024-01-27T12:19:36;10.75;;;2.75;;
38208;SDS011;24016;52.102;11.584;2024-01-27T12:22:02;9.18;;;1.95;;
38208;SDS011;24016;52.102;11.584;2024-01-27T12:24:29;7.70;;;2.15;;
38208;SDS011;24016;52.102;11.584;2024-01-27T12:26:55;11.20;;;2.42;;
38208;SDS011;24016;52.102;11.584;2024-01-27T12:29:22;10.77;;;2.15;;
38208;SDS011;24016;52.102;11.584;2024-01-27T12:31:47;10.32;;;2.28;;
38208;SDS011;24016;52.102;11.584;2024-01-27T12:34:13;11.43;;;2.88;;
38208;SDS011;24016;52.102;11.584;2024-01-27T12:36:42;7.20;;;2.13;;
38208;SDS011;24016;52.102;11.584;2024-01-27T12:39:08;5.63;;;2.03;;
38208;SDS011;24016;52.102;11.584;2024-01-27T12:41:34;5.15;;;2.08;;
38208;SDS011;24016;52.102;11.584;2024-01-27T12:44:00;7.75;;;2.63;;
38208;SDS011;24016;52.102;11.584;2024-01-27T12:46:27;7.32;;;2.15;;
38208;SDS011;24016;52.102;11.584;2024-01-27T12:48:52;8.13;;;2.45;;
38208;SDS011;24016;52.102;11.584;2024-01-27T12:51:18;11.10;;;2.20;;
38208;SDS011;24016;52.102;11.584;2024-01-27T12:53:44;6.28;;;1.80;;
38208;SDS011;24016;52.102;11.584;2024-01-27T12:56:10;9.80;;;2.25;;
38208;SDS011;24016;52.102;11.584;2024-01-27T12:58:36;9.07;;;2.20;;
38208;SDS011;24016;52.102;11.584;2024-01-27T13:01:03;10.68;;;2.10;;
38208;SDS011;24016;52.102;11.584;2024-01-27T13:03:28;11.50;;;1.85;;
38208;SDS011;24016;52.102;11.584;2024-01-27T13:05:54;10.48;;;2.35;;
38208;SDS011;24016;52.102;11.584;2024-01-27T13:08:21;8.10;;;2.17;;
38208;SDS011;24016;52.102;11.584;2024-01-27T13:10:46;9.52;;;2.97;;
38208;SDS011;24016;52.102;11.584;2024-01-27T13:13:12;11.07;;;3.25;;
38208;SDS011;24016;52.102;11.584;2024-01-27T13:15:38;12.90;;;3.20;;
38208;SDS011;24016;52.102;11.584;2024-01-27T13:18:03;13.25;;;3.50;;
38208;SDS011;24016;52.102;11.584;2024-01-27T13:20:29;10.38;;;3.03;;
38208;SDS011;24016;52.102;11.584;2024-01-27T13:22:55;8.85;;;3.10;;
38208;SDS011;24016;52.102;11.584;2024-01-27T13:25:20;19.67;;;3.88;;
38208;SDS011;24016;52.102;11.584;2024-01-27T13:27:46;8.57;;;2.83;;
38208;SDS011;24016;52.102;11.584;2024-01-27T13:30:12;9.50;;;2.92;;
38208;SDS011;24016;52.102;11.584;2024-01-27T13:32:38;9.13;;;3.53;;
38208;SDS011;24016;52.102;11.584;2024-01-27T13:35:04;7.20;;;2.47;;
38208;SDS011;24016;52.102;11.584;2024-01-27T13:37:30;7.97;;;2.63;;
38208;SDS011;24016;52.102;11.584;2024-01-27T13:40:03;12.68;;;2.70;;
38208;SDS011;24016;52.102;11.584;2024-01-27T13:42:30;12.13;;;3.13;;
38208;SDS011;24016;52.102;11.584;2024-01-27T13:44:56;10.93;;;3.28;;
38208;SDS011;24016;52.102;11.584;2024-01-27T13:47:22;12.18;;;3.40;;
38208;SDS011;24016;52.102;11.584;2024-01-27T13:49:47;10.52;;;3.13;;
38208;SDS011;24016;52.102;11.584;2024-01-27T13:52:13;7.22;;;2.53;;
38208;SDS011;24016;52.102;11.584;2024-01-27T13:54:38;9.32;;;2.67;;
38208;SDS011;24016;52.102;11.584;2024-01-27T13:57:04;9.85;;;2.55;;
38208;SDS011;24016;52.102;11.584;2024-01-27T13:59:30;7.93;;;1.98;;
38208;SDS011;24016;52.102;11.584;2024-01-27T14:01:56;5.70;;;1.70;;
38208;SDS011;24016;52.102;11.584;2024-01-27T14:04:23;7.97;;;2.38;;
38208;SDS011;24016;52.102;11.584;2024-01-27T14:06:51;15.82;;;2.55;;
38208;SDS011;24016;52.102;11.584;2024-01-27T14:09:21;11.40;;;2.10;;
38208;SDS011;24016;52.102;11.584;2024-01-27T14:11:49;6.65;;;2.17;;
38208;SDS011;24016;52.102;11.584;2024-01-27T14:14:15;9.68;;;2.45;;
38208;SDS011;24016;52.102;11.584;2024-01-27T14:16:43;9.38;;;2.58;;
38208;SDS011;24016;52.102;11.584;2024-01-27T14:19:09;14.27;;;2.55;;
38208;SDS011;24016;52.102;11.584;2024-01-27T14:21:35;9.32;;;2.63;;
38208;SDS011;24016;52.102;11.584;2024-01-27T14:24:01;9.50;;;2.75;;